createdAt,value
2019-05-12T00:01:10.433Z,3.37
2019-05-12T00:06:18.385Z,3.14
2019-05-12T00:11:28.516Z,3.30
2019-05-12T00:16:33.517Z,3.01
2019-05-12T00:21:41.113Z,3.37
2019-05-12T00:26:48.949Z,3.15
2019-05-12T00:31:58.070Z,3.35
2019-05-12T00:37:05.693Z,3.53
2019-05-12T00:42:13.309Z,3.11
2019-05-12T00:47:21.160Z,2.92
2019-05-12T00:52:28.783Z,3.12
2019-05-12T00:57:38.253Z,3.14
2019-05-12T01:02:43.853Z,3.14
2019-05-12T01:07:51.533Z,3.17
2019-05-12T01:12:59.214Z,3.30
2019-05-12T01:18:09.304Z,3.12
2019-05-12T01:23:14.440Z,3.15
2019-05-12T01:28:22.159Z,3.18
2019-05-12T01:33:29.817Z,3.02
2019-05-12T01:38:38.059Z,3.16
2019-05-12T01:43:45.354Z,3.09
2019-05-12T01:48:53.230Z,2.98
2019-05-12T01:54:10.990Z,3.23
2019-05-12T01:59:08.316Z,2.93
2019-05-12T02:04:17.986Z,2.79
2019-05-12T02:09:23.270Z,3.14
2019-05-12T02:14:31.036Z,2.84
2019-05-12T02:19:38.869Z,3.09
2019-05-12T02:24:47.898Z,3.19
2019-05-12T02:29:53.865Z,3.52
2019-05-12T02:35:01.452Z,3.44
2019-05-12T02:40:09.206Z,3.34
2019-05-12T02:45:16.911Z,3.33
2019-05-12T02:50:24.822Z,3.34
2019-05-12T02:55:34.807Z,3.24
2019-05-12T03:00:39.546Z,3.39
2019-05-12T03:05:47.513Z,3.46
2019-05-12T03:10:55.292Z,3.31
2019-05-12T03:16:04.817Z,2.87
2019-05-12T03:21:10.152Z,2.97
2019-05-12T03:26:18.849Z,3.36
2019-05-12T03:31:31.247Z,3.37
2019-05-12T03:36:41.254Z,3.02
2019-05-12T03:41:44.330Z,3.04
2019-05-12T03:46:48.913Z,3.18
2019-05-12T03:51:56.747Z,3.19
2019-05-12T03:57:04.586Z,3.38
2019-05-12T04:02:14.376Z,3.48
2019-05-12T04:07:19.581Z,3.49
2019-05-12T04:12:27.629Z,3.41
2019-05-12T04:17:35.341Z,3.59
2019-05-12T04:22:44.628Z,3.52
2019-05-12T04:27:50.267Z,3.98
2019-05-12T04:32:58.020Z,3.61
2019-05-12T04:38:05.804Z,3.53
2019-05-12T04:43:14.519Z,3.68
2019-05-12T04:48:21.462Z,4.09
2019-05-12T04:53:27.998Z,3.57
2019-05-12T04:58:35.661Z,4.05
2019-05-12T05:03:44.292Z,3.75
2019-05-12T05:08:50.846Z,3.68
2019-05-12T05:13:58.493Z,3.63
2019-05-12T05:19:06.136Z,3.76
2019-05-12T05:24:14.364Z,3.92
2019-05-12T05:29:21.141Z,3.55
2019-05-12T05:34:30.964Z,3.37
2019-05-12T05:39:48.068Z,3.41
2019-05-12T05:44:47.698Z,2.98
2019-05-12T05:49:55.794Z,3.47
2019-05-12T05:55:05.763Z,3.31
2019-05-12T06:00:17.417Z,3.36
2019-05-12T06:05:19.985Z,2.91
2019-05-12T06:10:35.243Z,3.05
2019-05-12T06:15:38.712Z,2.78
2019-05-12T06:20:43.748Z,2.64
2019-05-12T06:25:51.607Z,2.40
2019-05-12T06:30:58.302Z,2.52
2019-05-12T06:36:07.454Z,2.50
2019-05-12T06:41:20.626Z,2.50
2019-05-12T06:46:22.967Z,2.14
2019-05-12T06:51:27.831Z,2.45
2019-05-12T06:56:35.768Z,2.59
2019-05-12T07:01:44.950Z,2.36
2019-05-12T07:06:56.199Z,2.27
2019-05-12T07:12:06.169Z,1.94
2019-05-12T07:17:06.560Z,1.74
2019-05-12T07:22:22.435Z,1.97
2019-05-12T07:27:35.288Z,1.95
2019-05-12T07:32:29.923Z,1.96
2019-05-12T07:37:37.766Z,1.67
2019-05-12T07:42:45.499Z,1.64
2019-05-12T07:47:54.108Z,1.58
2019-05-12T07:53:03.742Z,1.38
2019-05-12T07:58:14.089Z,1.43
2019-05-12T08:03:20.965Z,2.09
2019-05-12T08:08:26.624Z,1.80
2019-05-12T08:13:24.543Z,1.72
2019-05-12T08:18:37.084Z,1.81
2019-05-12T08:23:39.945Z,1.85
2019-05-12T08:28:53.517Z,1.46
2019-05-12T08:33:49.281Z,1.53
2019-05-12T08:38:57.245Z,1.70
2019-05-12T08:44:04.953Z,1.68
2019-05-12T08:49:14.336Z,2.09
2019-05-12T08:54:20.347Z,2.04
2019-05-12T08:59:28.493Z,2.35
2019-05-12T09:04:36.565Z,1.71
2019-05-12T09:09:44.452Z,1.55
2019-05-12T09:14:54.624Z,1.59
2019-05-12T09:20:05.964Z,1.68
2019-05-12T09:25:08.600Z,1.51
2019-05-12T09:30:16.023Z,1.70
2019-05-12T09:35:28.658Z,1.57
2019-05-12T09:40:31.399Z,1.66
2019-05-12T09:45:49.781Z,1.50
2019-05-12T09:50:51.483Z,1.58
2019-05-12T09:55:58.378Z,1.53
2019-05-12T10:01:03.663Z,1.60
2019-05-12T10:06:11.304Z,1.50
2019-05-12T10:11:20.813Z,1.48
2019-05-12T10:16:25.740Z,1.81
2019-05-12T10:21:36.079Z,1.75
2019-05-12T10:26:48.885Z,1.26
2019-05-12T10:31:49.289Z,1.73
2019-05-12T10:36:57.541Z,1.84
2019-05-12T10:43:06.262Z,1.94
2019-05-12T10:48:04.034Z,2.00
2019-05-12T10:53:17.864Z,1.80
2019-05-12T10:58:14.593Z,1.70
2019-05-12T11:03:20.673Z,1.82
2019-05-12T11:08:28.837Z,1.75
2019-05-12T11:13:40.367Z,1.60
2019-05-12T11:18:44.233Z,1.37
2019-05-12T11:23:54.439Z,1.47
2019-05-12T11:28:59.828Z,1.47
2019-05-12T11:34:07.591Z,1.52
2019-05-12T11:39:15.389Z,1.36
2019-05-12T11:44:23.318Z,1.45
2019-05-12T11:49:33.211Z,1.42
2019-05-12T11:54:41.187Z,1.19
2019-05-12T11:59:58.073Z,1.22
2019-05-12T12:04:54.391Z,1.47
2019-05-12T12:10:03.707Z,1.54
2019-05-12T12:15:10.336Z,1.40
2019-05-12T12:20:22.396Z,1.31
2019-05-12T12:25:29.232Z,1.36
2019-05-12T12:30:27.114Z,1.49
2019-05-12T12:35:34.983Z,2.27
2019-05-12T12:40:44.123Z,2.01
2019-05-12T12:45:51.091Z,1.63
2019-05-12T12:51:00.116Z,1.51
2019-05-12T12:56:09.337Z,1.73
2019-05-12T13:01:26.814Z,1.64
2019-05-12T13:06:26.850Z,1.62
2019-05-12T13:11:35.072Z,1.58
2019-05-12T13:16:43.725Z,1.57
2019-05-12T13:21:49.883Z,1.49
2019-05-12T13:26:57.879Z,1.34
2019-05-12T13:32:06.182Z,1.30
2019-05-12T13:37:15.488Z,1.39
2019-05-12T13:42:21.281Z,1.15
2019-05-12T13:47:35.503Z,1.57
2019-05-12T13:52:37.203Z,1.31
2019-05-12T13:57:52.184Z,1.27
2019-05-12T14:02:55.438Z,1.53
2019-05-12T14:08:03.953Z,1.46
2019-05-12T14:13:00.152Z,1.27
2019-05-12T14:18:10.388Z,1.74
2019-05-12T14:23:16.818Z,2.22
2019-05-12T14:28:24.960Z,1.65
2019-05-12T14:33:36.837Z,1.41
2019-05-12T14:38:40.323Z,1.88
2019-05-12T14:43:53.617Z,1.64
2019-05-12T14:48:55.764Z,1.55
2019-05-12T14:54:04.038Z,1.77
2019-05-12T14:59:13.843Z,1.50
2019-05-12T15:04:24.876Z,1.51
2019-05-12T15:09:27.343Z,1.60
2019-05-12T15:14:37.902Z,1.50
2019-05-12T15:19:44.079Z,1.94
2019-05-12T15:24:56.973Z,1.36
2019-05-12T15:29:59.520Z,2.57
2019-05-12T15:35:04.897Z,2.85
2019-05-12T15:40:14.454Z,2.09
2019-05-12T15:45:20.463Z,1.86
2019-05-12T15:50:30.643Z,1.89
2019-05-12T15:59:29.758Z,1.52
2019-05-12T16:05:39.126Z,1.25
2019-05-12T16:10:56.119Z,1.33
2019-05-12T16:15:57.517Z,1.73
2019-05-12T16:21:05.198Z,1.16
2019-05-12T16:26:12.359Z,1.53
2019-05-12T16:31:15.766Z,1.22
2019-05-12T16:36:23.943Z,1.53
2019-05-12T16:41:35.249Z,1.58
2019-05-12T16:46:33.996Z,1.69
2019-05-12T16:51:40.558Z,1.28
2019-05-12T16:56:48.659Z,1.17
2019-05-12T17:01:59.446Z,1.32
2019-05-12T17:07:09.635Z,1.57
2019-05-12T17:12:14.571Z,1.54
2019-05-12T17:17:21.193Z,1.63
2019-05-12T17:22:28.041Z,1.69
2019-05-12T17:27:35.834Z,1.75
2019-05-12T17:32:57.498Z,1.51
2019-05-12T17:37:53.415Z,1.88
2019-05-12T17:43:06.866Z,1.69
2019-05-12T17:48:07.740Z,1.93
2019-05-12T17:53:15.895Z,1.87
2019-05-12T17:58:21.085Z,1.94
2019-05-12T18:03:29.213Z,2.03
2019-05-12T18:08:38.697Z,2.25
2019-05-12T18:13:44.674Z,2.18
2019-05-12T18:18:52.633Z,2.02
2019-05-12T18:24:08.936Z,2.22
2019-05-12T18:29:08.999Z,2.05
2019-05-12T18:34:19.750Z,2.11
2019-05-12T18:39:24.691Z,2.45
2019-05-12T18:44:32.948Z,2.53
2019-05-12T18:49:42.040Z,2.35
2019-05-12T18:54:52.076Z,2.88
2019-05-12T19:00:01.480Z,2.94
2019-05-12T19:05:04.503Z,2.78
2019-05-12T19:10:11.304Z,2.39
2019-05-12T19:15:22.118Z,2.37
2019-05-12T19:20:37.868Z,2.31
2019-05-12T19:25:40.262Z,2.51
2019-05-12T19:30:43.765Z,2.73
2019-05-12T19:35:59.801Z,2.72
2019-05-12T19:41:00.741Z,3.38
2019-05-12T19:46:05.679Z,3.59
2019-05-12T19:51:23.735Z,3.85
2019-05-12T19:56:23.927Z,3.29
2019-05-12T20:01:32.739Z,3.25
2019-05-12T20:06:38.361Z,4.13
2019-05-12T20:11:46.381Z,3.48
2019-05-12T20:16:54.567Z,2.75
2019-05-12T20:22:03.485Z,2.46
2019-05-12T20:27:16.017Z,2.52
2019-05-12T20:32:18.429Z,2.68
2019-05-12T20:37:26.257Z,2.96
2019-05-12T20:47:45.183Z,2.98
2019-05-12T20:52:52.243Z,2.78
2019-05-12T20:57:56.936Z,2.36
2019-05-12T21:03:04.433Z,3.04
2019-05-12T21:08:14.479Z,2.72
2019-05-12T21:13:20.492Z,3.17
2019-05-12T21:18:43.191Z,2.66
2019-05-12T21:23:27.654Z,3.07
2019-05-12T21:28:37.290Z,2.64
2019-05-12T21:33:43.267Z,2.61
2019-05-12T21:38:53.989Z,2.89
2019-05-12T21:44:00.170Z,3.16
2019-05-12T21:49:10.636Z,2.59
2019-05-12T21:54:13.830Z,2.94
2019-05-12T21:59:23.405Z,2.45
2019-05-12T22:04:33.002Z,2.57
2019-05-12T22:09:41.769Z,2.73
2019-05-12T22:14:46.295Z,2.99
2019-05-12T22:19:53.565Z,3.33
2019-05-12T22:24:59.914Z,2.75
2019-05-12T22:30:07.646Z,2.73
2019-05-12T22:35:21.846Z,2.86
2019-05-12T22:40:23.592Z,3.19
2019-05-12T22:45:37.765Z,2.98
2019-05-12T22:50:36.959Z,2.78
2019-05-12T22:55:44.581Z,3.03
2019-05-12T23:01:00.645Z,2.77
2019-05-12T23:06:01.661Z,2.76
2019-05-12T23:11:06.795Z,3.14
2019-05-12T23:16:19.148Z,2.77
2019-05-12T23:21:24.080Z,2.73
2019-05-12T23:26:35.540Z,3.17
2019-05-12T23:31:36.376Z,2.81
2019-05-12T23:36:44.116Z,3.07
2019-05-12T23:41:53.797Z,2.82
2019-05-12T23:46:59.520Z,2.83
2019-05-12T23:52:07.265Z,3.08
2019-05-12T23:57:15.696Z,3.22
